Airfield :
LOGIN :

Register | Disclaimer

   EN    FR    IT 

 










Legend :    VFR   Marginal VFR   IFR   Intensive IFR   Very Intensive IFR
Visi :
Ceiling :
>= 8 km
>= 3000ft
5 to 8 km
1000 to 3000 ft
1500m to 5 km
500 to 1000 ft
800 to 1500m
200 to 500 ft
< 800m
< 200 ft
Symbols :   Thunderstorms  Fog  Heavy snow  Heavy precipitations  Wind > 20 kt
SIGMETs :     Misc.  Thunderstorms  Icing  Turbulence  Mountain Waves  Volcanic Ashes






- Airport Elevation : 499 ft
- IATA code : TLS


LFBO - Toulouse / Blagnac

CURRENT METAR :
  • 221300Z AUTO 35006KT 310V020 9999 SCT023 BKN028 OVC034 15/12 Q1022 TEMPO SCT030TCU

EXPIRED METARs :
  • 221230Z AUTO 34006KT 310V010 9999 FEW014 BKN021 OVC027 15/12 Q1022 TEMPO SCT030TCU
  • 221200Z AUTO 34008KT 310V010 9999 SCT017 BKN023 BKN028 15/12 Q1023 TEMPO SCT030TCU
  • 221130Z AUTO 35005KT 310V020 9999 SCT015 BKN021 BKN027 15/12 Q1023 TEMPO 4000 SHRA SCT030TCU
  • 221100Z AUTO 29008KT 270V340 9999 FEW009 BKN013 BKN020 15/12 Q1023 TEMPO 4000 SHRA SCT030TCU
  • 221030Z AUTO 31006KT 270V330 9999 BKN012 BKN020 OVC029 14/12 Q1023 TEMPO 4000 SHRA SCT030TCU

TAF TAF LFBO
Valid from the 22 at 12:00 until the 23 at 18:00 UTC


221100Z 2212/2318 30008KT 9999 BKN013
BECMG 2212/2214 BKN025
PROB40
TEMPO 2212/2218 -SHRA SCT030TCU
BECMG 2214/2216 SCT025 BKN040
BECMG 2218/2220 CAVOK
BECMG 2303/2305 VRB03KT
ATIS : +33 5 62 74 66 36



MET'MAP, your aeronautical weather chart ! - Copyright ORBIFLY December 2007 - Disclaimer

ORBIFLY MET'MAP TEAM :

Programming & Development : Alexandra Zaïnal
Concept & original design : Baudouin d'Aumeries
Assistance for programming : Marc-Olivier Méhu
Technical & hardware support : Manuel Goepfert

Contact : metmap@orbifly.com




SOURCES & CREDITS :

   NOAA